Terminal Aerodrome Forecast
Issued by NWS

Home | Current Version | Previous Version | Graphics & Text | Print | Product List | Glossary On
Versions: 1 2 3 4 5 6 7 8 9 10 11 12 13 14 15 16 17 18 19 20 21 22 23 24 25
588
FTUS43 KLOT 191745
TAFORD
TAF
KORD 191745Z 1918/2024 VRB03KT P6SM FEW250
     FM192000 09007KT P6SM SCT250
     FM200500 12005KT P6SM SCT250
     FM201000 13004KT 3SM BR SCT006 BKN250
      TEMPO 2011/2015 1 1/2SM BR SCT003 OVC007
     FM201600 16012KT P6SM SCT007 BKN035 OVC250 PROB30 2021/2024 6SM
      -SHRA BKN030=

USA.gov is the U.S. government's official web portal to all federal, state and local government web resources and services.